Time;durP1;ratioP1;P1;durP2;ratioP2;P2;SDS_P1;SDS_P2;PMS_P1;PMS_P2;Temp;Humidity;BMP_temperature;BMP_pressure;BME280_temperature;BME280_humidity;BME280_pressure;Samples;Min_cycle;Max_cycle;Signal;HPM_P1;HPM_P2
2022/09/26 00:02:22;;;;;;;3.13;1.40;;;13.60;99.90;;;;;;4959766;28;25072;-77
2022/09/26 00:04:49;;;;;;;6.88;1.40;;;13.70;99.90;;;;;;4979031;28;25052;-76
2022/09/26 00:07:14;;;;;;;3.88;1.30;;;13.70;99.90;;;;;;4983669;28;25102;-76
2022/09/26 00:09:40;;;;;;;8.00;1.35;;;13.70;99.90;;;;;;4992897;28;25108;-75
2022/09/26 00:12:06;;;;;;;5.88;1.40;;;13.70;99.90;;;;;;4995038;28;25124;-76
2022/09/26 00:14:32;;;;;;;3.72;1.10;;;13.70;99.90;;;;;;4963250;28;25076;-76
2022/09/26 00:16:58;;;;;;;4.22;1.40;;;13.70;99.90;;;;;;5012689;28;25077;-76
2022/09/26 00:19:23;;;;;;;2.83;1.15;;;13.60;99.90;;;;;;5017726;28;25078;-74
2022/09/26 00:21:49;;;;;;;3.10;1.30;;;13.60;99.90;;;;;;5018173;28;25056;-75
2022/09/26 00:24:15;;;;;;;2.50;1.15;;;13.60;99.90;;;;;;5012119;28;25144;-75
2022/09/26 00:26:40;;;;;;;3.03;1.10;;;13.60;99.90;;;;;;5009277;28;25059;-75
2022/09/26 00:29:09;;;;;;;2.97;1.10;;;13.60;99.90;;;;;;4997289;28;25161;-75
2022/09/26 00:31:40;;;;;;;2.80;1.30;;;13.60;99.90;;;;;;4996217;28;25133;-75
2022/09/26 00:34:06;;;;;;;3.22;0.98;;;13.50;99.90;;;;;;4982060;28;25077;-73
2022/09/26 00:36:32;;;;;;;4.57;1.40;;;13.50;99.90;;;;;;4996034;28;25061;-74
2022/09/26 00:38:59;;;;;;;3.08;1.20;;;13.50;99.90;;;;;;4979790;28;25084;-74
2022/09/26 00:41:25;;;;;;;3.40;1.33;;;13.50;99.90;;;;;;4959480;28;25049;-75
2022/09/26 00:43:56;;;;;;;1.30;1.20;;;13.50;99.90;;;;;;4961416;28;25138;-73
2022/09/26 00:46:27;;;;;;;2.63;1.40;;;13.40;99.90;;;;;;4972603;28;25080;-74
2022/09/26 00:48:58;;;;;;;5.10;1.40;;;13.40;99.90;;;;;;4994121;28;25347;-73
2022/09/26 00:51:24;;;;;;;6.37;1.67;;;13.40;99.90;;;;;;4978676;28;25054;-75
2022/09/26 00:53:52;;;;;;;4.22;1.65;;;13.40;99.90;;;;;;4988639;28;25090;-76
2022/09/26 00:56:22;;;;;;;4.90;1.65;;;13.40;99.90;;;;;;4981596;28;25179;-75
2022/09/26 00:58:53;;;;;;;7.85;1.70;;;13.40;99.90;;;;;;4975124;28;25092;-73
2022/09/26 01:01:19;;;;;;;4.25;2.88;;;13.40;99.90;;;;;;4969810;28;25069;-75
2022/09/26 01:03:46;;;;;;;7.53;1.95;;;13.20;99.90;;;;;;4958906;28;25111;-76
2022/09/26 01:06:14;;;;;;;3.47;1.70;;;13.20;99.90;;;;;;4958204;28;25136;-74
2022/09/26 01:08:44;;;;;;;5.97;1.80;;;13.30;99.90;;;;;;4975203;28;25103;-75
2022/09/26 01:11:10;;;;;;;3.03;1.95;;;13.20;99.90;;;;;;4976454;28;25050;-75
2022/09/26 01:13:38;;;;;;;11.20;1.90;;;13.20;99.90;;;;;;4956309;28;25063;-75
2022/09/26 01:16:03;;;;;;;3.35;1.92;;;13.20;99.90;;;;;;4959642;28;25108;-74
2022/09/26 01:18:29;;;;;;;6.75;2.30;;;13.20;99.90;;;;;;4979794;28;25159;-75
2022/09/26 01:21:09;;;;;;;6.53;1.98;;;13.20;99.90;;;;;;4994911;28;25155;-75
2022/09/26 01:24:04;;;;;;;3.78;1.98;;;13.10;99.90;;;;;;4968739;28;25056;-74
2022/09/26 01:26:56;;;;;;;5.88;1.55;;;13.20;99.90;;;;;;4971195;28;25070;-73
2022/09/26 01:29:50;;;;;;;3.53;2.00;;;13.20;99.90;;;;;;4937602;28;25053;-75
2022/09/26 01:32:49;;;;;;;6.82;2.20;;;13.10;99.90;;;;;;4991847;28;25078;-74
2022/09/26 01:36:00;;;;;;;2.30;1.48;;;13.10;99.90;;;;;;4985282;28;25066;-75
2022/09/26 01:39:03;;;;;;;5.85;1.80;;;13.10;99.90;;;;;;4977133;28;25096;-74
2022/09/26 01:41:41;;;;;;;6.38;2.47;;;13.10;99.90;;;;;;4939334;28;25121;-74
2022/09/26 01:44:38;;;;;;;2.90;1.50;;;13.10;99.90;;;;;;4986290;28;24873;-74
2022/09/26 01:47:12;;;;;;;6.50;1.67;;;13.10;99.90;;;;;;4986876;28;25062;-74
2022/09/26 01:49:52;;;;;;;5.20;1.88;;;13.10;99.90;;;;;;4971039;28;25065;-74
2022/09/26 01:52:28;;;;;;;5.38;1.77;;;13.10;99.90;;;;;;4992715;28;25073;-74
2022/09/26 01:55:06;;;;;;;2.50;1.58;;;13.10;99.90;;;;;;4964074;28;25079;-76
2022/09/26 01:57:39;;;;;;;5.47;2.28;;;13.10;99.90;;;;;;4993823;28;25072;-76
2022/09/26 02:00:06;;;;;;;3.63;1.73;;;13.10;99.90;;;;;;5003605;28;25058;-76
2022/09/26 02:02:37;;;;;;;8.13;1.90;;;13.10;99.90;;;;;;4989727;28;25068;-76
2022/09/26 02:05:07;;;;;;;5.43;1.88;;;13.00;99.90;;;;;;4959138;28;25065;-76
2022/09/26 02:07:41;;;;;;;3.20;1.73;;;13.00;99.90;;;;;;4975256;28;25069;-77
2022/09/26 02:10:14;;;;;;;4.70;2.10;;;13.00;99.90;;;;;;4982430;28;25058;-77
2022/09/26 02:12:44;;;;;;;4.05;1.88;;;12.90;99.90;;;;;;4975272;28;25056;-77
2022/09/26 02:15:13;;;;;;;8.25;2.10;;;12.90;99.90;;;;;;4991007;28;25137;-77
2022/09/26 02:17:44;;;;;;;5.90;2.05;;;12.90;99.90;;;;;;4976570;28;25122;-76
2022/09/26 02:20:28;;;;;;;3.88;2.70;;;12.90;99.90;;;;;;4974412;28;25131;-76
2022/09/26 02:22:54;;;;;;;4.38;1.90;;;12.80;99.90;;;;;;4975487;28;25152;-76
2022/09/26 02:25:20;;;;;;;4.90;2.10;;;12.90;99.90;;;;;;4976842;28;25079;-78
2022/09/26 02:27:47;;;;;;;6.93;2.22;;;12.80;99.90;;;;;;5000755;28;25068;-75
2022/09/26 02:30:12;;;;;;;10.27;2.22;;;12.80;99.90;;;;;;4996241;28;25077;-76
2022/09/26 02:32:39;;;;;;;4.25;2.33;;;12.80;99.90;;;;;;4999160;28;25158;-75
2022/09/26 02:37:51;;;;;;;5.03;1.95;;;12.70;99.90;;;;;;4983911;28;25068;-75
2022/09/26 02:40:19;;;;;;;5.25;2.08;;;12.70;99.90;;;;;;4953996;28;25067;-76
2022/09/26 02:43:01;;;;;;;3.00;1.98;;;12.70;99.90;;;;;;4963631;28;25071;-75
2022/09/26 02:45:52;;;;;;;4.20;1.95;;;12.70;99.90;;;;;;4978635;28;25185;-76
2022/09/26 02:48:28;;;;;;;8.10;2.83;;;12.70;99.90;;;;;;4964428;28;25061;-75
2022/09/26 02:51:02;;;;;;;4.18;1.77;;;12.70;99.90;;;;;;4976479;28;25048;-75
2022/09/26 02:53:44;;;;;;;3.05;1.90;;;12.70;99.90;;;;;;4997928;28;25068;-74
2022/09/26 02:56:32;;;;;;;4.32;2.42;;;12.70;99.90;;;;;;4967777;28;25117;-75
2022/09/26 02:59:20;;;;;;;3.40;1.95;;;12.70;99.90;;;;;;4998651;28;25093;-74
2022/09/26 03:01:55;;;;;;;6.88;2.38;;;12.60;99.90;;;;;;4981564;28;25070;-75
2022/09/26 03:04:34;;;;;;;3.75;1.85;;;12.70;99.90;;;;;;4984426;28;25070;-75
2022/09/26 03:07:04;;;;;;;11.10;2.35;;;12.70;99.90;;;;;;4951860;28;25060;-76
2022/09/26 03:09:31;;;;;;;6.15;2.45;;;12.60;99.90;;;;;;4997977;28;25077;-75
2022/09/26 03:12:00;;;;;;;5.25;2.22;;;12.60;99.90;;;;;;4964511;28;25049;-75
2022/09/26 03:14:29;;;;;;;4.15;1.98;;;12.70;99.90;;;;;;4986519;28;25146;-75
2022/09/26 03:16:55;;;;;;;4.18;1.63;;;12.70;99.90;;;;;;4983589;28;25081;-76
2022/09/26 03:19:30;;;;;;;2.30;1.55;;;12.60;99.90;;;;;;4989537;28;25085;-75
2022/09/26 03:21:56;;;;;;;3.03;1.65;;;12.60;99.90;;;;;;4987495;28;25134;-76
2022/09/26 03:24:25;;;;;;;5.95;2.22;;;12.70;99.90;;;;;;4989962;28;25061;-77
2022/09/26 03:26:51;;;;;;;3.83;1.63;;;12.70;99.90;;;;;;4993428;28;25155;-76
2022/09/26 03:29:18;;;;;;;7.57;2.08;;;12.70;99.90;;;;;;4988198;28;25063;-77
2022/09/26 03:31:44;;;;;;;6.57;2.03;;;12.60;99.90;;;;;;4992162;28;25072;-75
2022/09/26 03:34:10;;;;;;;4.50;2.10;;;12.60;99.90;;;;;;4996451;28;25068;-76
2022/09/26 03:36:38;;;;;;;4.07;1.80;;;12.70;99.90;;;;;;4993731;28;25079;-74
2022/09/26 03:39:04;;;;;;;5.03;1.70;;;12.60;99.90;;;;;;4999362;28;25067;-76
2022/09/26 03:41:29;;;;;;;3.88;1.85;;;12.60;99.90;;;;;;4999612;28;25058;-75
2022/09/26 03:43:56;;;;;;;5.25;1.92;;;12.60;99.90;;;;;;4995769;28;25144;-75
2022/09/26 03:46:23;;;;;;;5.07;1.67;;;12.60;99.90;;;;;;4993828;28;25090;-76
2022/09/26 03:48:49;;;;;;;6.82;1.88;;;12.60;99.90;;;;;;4991689;28;25149;-76
2022/09/26 03:51:15;;;;;;;3.22;1.75;;;12.60;99.90;;;;;;4989247;28;25077;-75
2022/09/26 03:53:44;;;;;;;3.75;2.38;;;12.60;99.90;;;;;;4970384;28;25075;-75
2022/09/26 03:56:13;;;;;;;7.28;1.55;;;12.60;99.90;;;;;;4999680;28;25068;-75
2022/09/26 03:58:39;;;;;;;5.75;1.52;;;12.60;99.90;;;;;;4982118;28;25072;-76
2022/09/26 04:01:07;;;;;;;3.83;1.88;;;12.60;99.90;;;;;;4993894;28;25064;-76
2022/09/26 04:03:37;;;;;;;4.45;1.65;;;12.60;99.90;;;;;;4992986;28;25143;-75
2022/09/26 04:06:04;;;;;;;6.85;2.30;;;12.60;99.90;;;;;;4987608;28;25157;-75
2022/09/26 04:08:30;;;;;;;3.00;1.75;;;12.60;99.90;;;;;;4990764;28;25078;-75
2022/09/26 04:11:08;;;;;;;4.07;1.63;;;12.60;99.90;;;;;;4997706;28;25063;-76
2022/09/26 04:13:33;;;;;;;4.22;1.80;;;12.60;99.90;;;;;;4991338;28;25081;-75
2022/09/26 04:16:00;;;;;;;4.88;1.67;;;12.60;99.90;;;;;;4982493;28;25066;-75
2022/09/26 04:18:27;;;;;;;2.95;1.60;;;12.60;99.90;;;;;;5004568;28;25059;-75
2022/09/26 04:21:00;;;;;;;6.55;1.88;;;12.60;99.90;;;;;;4957100;28;25067;-76
2022/09/26 04:23:28;;;;;;;2.80;1.42;;;12.60;99.90;;;;;;4990897;28;25052;-76
2022/09/26 04:25:54;;;;;;;6.07;1.70;;;12.60;99.90;;;;;;4996583;28;25075;-75
2022/09/26 04:28:20;;;;;;;3.05;1.83;;;12.60;99.90;;;;;;5007456;28;25059;-76
2022/09/26 04:30:46;;;;;;;5.10;1.65;;;12.60;99.90;;;;;;4998137;28;25131;-75
2022/09/26 04:33:11;;;;;;;3.65;1.55;;;12.60;99.90;;;;;;4994513;28;25073;-76
2022/09/26 04:35:37;;;;;;;5.63;1.70;;;12.60;99.90;;;;;;5001775;28;25072;-75
2022/09/26 04:38:03;;;;;;;4.55;1.55;;;12.50;99.90;;;;;;4995704;28;25108;-75
2022/09/26 04:40:30;;;;;;;2.13;1.25;;;12.50;99.90;;;;;;4997654;28;25067;-75
2022/09/26 04:42:56;;;;;;;7.63;1.85;;;12.50;99.90;;;;;;4995259;28;25059;-74
2022/09/26 04:45:22;;;;;;;9.65;1.80;;;12.40;99.90;;;;;;4996369;28;25059;-78
2022/09/26 04:47:47;;;;;;;4.40;1.55;;;12.40;99.90;;;;;;4997322;28;25063;-73
2022/09/26 04:50:13;;;;;;;2.65;1.15;;;12.30;99.90;;;;;;5002639;28;25059;-73
2022/09/26 04:52:39;;;;;;;6.90;1.20;;;12.30;99.90;;;;;;5001061;28;25079;-74
2022/09/26 04:55:06;;;;;;;3.97;1.63;;;12.30;99.90;;;;;;5001314;28;25065;-74
2022/09/26 04:57:31;;;;;;;3.30;1.42;;;12.30;99.90;;;;;;4975371;28;25121;-74
2022/09/26 04:59:57;;;;;;;4.35;1.42;;;12.20;99.90;;;;;;4996575;28;25116;-74
2022/09/26 05:02:22;;;;;;;2.40;1.52;;;12.10;99.90;;;;;;4982805;28;25064;-75
2022/09/26 05:04:48;;;;;;;2.83;1.42;;;12.20;99.90;;;;;;5003239;28;25087;-76
2022/09/26 05:07:15;;;;;;;2.35;1.40;;;12.10;99.90;;;;;;4994161;28;25088;-76
2022/09/26 05:09:43;;;;;;;4.78;1.80;;;12.00;99.90;;;;;;4997172;28;25060;-75
2022/09/26 05:12:09;;;;;;;3.55;1.67;;;12.00;99.90;;;;;;5000622;28;25062;-73
2022/09/26 05:14:35;;;;;;;4.45;1.77;;;12.00;99.90;;;;;;5004942;28;25055;-73
2022/09/26 05:17:01;;;;;;;3.13;1.50;;;12.00;99.90;;;;;;4992816;28;25073;-74
2022/09/26 05:19:27;;;;;;;5.18;1.60;;;12.10;99.90;;;;;;4993890;28;25142;-74
2022/09/26 05:21:52;;;;;;;8.02;2.00;;;12.10;99.90;;;;;;5000415;28;25072;-74
2022/09/26 05:27:05;;;;;;;4.13;1.25;;;12.10;99.90;;;;;;5006620;28;25068;-75
2022/09/26 05:29:31;;;;;;;11.13;1.58;;;12.10;99.90;;;;;;4998720;28;25087;-75
2022/09/26 05:31:56;;;;;;;3.08;1.65;;;12.10;99.90;;;;;;5002808;28;25147;-72
2022/09/26 05:34:24;;;;;;;4.97;1.63;;;12.20;99.90;;;;;;5003672;28;25121;-75
2022/09/26 05:36:51;;;;;;;5.75;1.40;;;12.20;99.90;;;;;;5001788;28;25071;-74
2022/09/26 05:42:03;;;;;;;1.52;1.30;;;12.20;99.90;;;;;;4997062;28;25144;-77
2022/09/26 05:44:29;;;;;;;6.13;1.70;;;12.20;99.90;;;;;;4999574;28;25079;-75
2022/09/26 05:46:56;;;;;;;4.90;1.70;;;12.20;99.90;;;;;;5005609;28;25104;-76
2022/09/26 05:49:21;;;;;;;3.75;1.00;;;12.20;99.90;;;;;;4985818;28;25087;-75
2022/09/26 05:51:47;;;;;;;5.30;1.38;;;12.10;99.90;;;;;;4982414;28;25172;-73
2022/09/26 05:54:13;;;;;;;5.40;1.67;;;12.20;99.90;;;;;;4992476;28;25089;-74
2022/09/26 05:56:38;;;;;;;5.18;1.40;;;12.10;99.90;;;;;;4988064;28;25115;-76
2022/09/26 05:59:04;;;;;;;4.70;1.45;;;12.10;99.90;;;;;;5014132;28;25095;-75
2022/09/26 06:01:32;;;;;;;2.22;1.23;;;12.20;99.90;;;;;;5010553;28;25103;-76
2022/09/26 06:03:57;;;;;;;8.05;1.80;;;12.20;99.90;;;;;;4965009;28;25058;-75
2022/09/26 06:06:23;;;;;;;4.53;1.65;;;12.20;99.90;;;;;;5001819;28;25104;-75
2022/09/26 06:08:49;;;;;;;2.35;1.30;;;12.20;99.90;;;;;;5004885;28;25074;-75
2022/09/26 06:11:17;;;;;;;3.97;1.08;;;12.20;99.90;;;;;;4991297;28;25149;-76
2022/09/26 06:13:44;;;;;;;5.32;1.63;;;12.20;99.90;;;;;;5006759;28;25074;-75
2022/09/26 06:16:13;;;;;;;1.42;1.33;;;12.20;99.90;;;;;;5004196;28;25062;-74
2022/09/26 06:18:40;;;;;;;2.50;1.83;;;12.20;99.90;;;;;;5007993;28;25080;-73
2022/09/26 06:21:08;;;;;;;4.75;1.48;;;12.20;99.90;;;;;;5005339;28;25088;-74
2022/09/26 06:23:35;;;;;;;2.22;1.33;;;12.20;99.90;;;;;;4976838;28;25059;-75
2022/09/26 06:26:07;;;;;;;6.85;1.88;;;12.20;99.90;;;;;;4980876;28;25067;-74
2022/09/26 06:28:35;;;;;;;3.08;1.60;;;12.20;99.90;;;;;;4996343;28;25071;-74
2022/09/26 06:31:11;;;;;;;12.60;1.70;;;12.20;99.90;;;;;;5002751;28;25147;-74
2022/09/26 06:33:36;;;;;;;2.65;1.65;;;12.30;99.90;;;;;;4996083;28;25056;-74
2022/09/26 06:36:05;;;;;;;1.92;1.48;;;12.30;99.90;;;;;;5006672;28;25137;-75
2022/09/26 06:38:31;;;;;;;7.50;1.58;;;12.40;99.90;;;;;;4999343;28;25073;-75
2022/09/26 06:40:56;;;;;;;2.60;1.58;;;12.40;99.90;;;;;;4992507;28;25064;-75
2022/09/26 06:43:22;;;;;;;2.33;1.40;;;12.40;99.90;;;;;;4993107;28;25079;-74
2022/09/26 06:45:48;;;;;;;2.53;1.60;;;12.40;99.90;;;;;;5008449;28;25111;-75
2022/09/26 06:48:17;;;;;;;4.38;1.55;;;12.50;99.90;;;;;;5008441;28;25072;-74
2022/09/26 06:50:43;;;;;;;2.10;1.50;;;12.40;99.90;;;;;;5008110;28;25084;-75
2022/09/26 06:53:09;;;;;;;4.90;1.45;;;12.40;99.90;;;;;;5004709;28;25076;-76
2022/09/26 06:55:35;;;;;;;5.57;1.30;;;12.50;99.90;;;;;;4997887;28;25055;-75
2022/09/26 06:58:01;;;;;;;3.05;1.30;;;12.50;99.90;;;;;;5007088;28;25081;-75
2022/09/26 07:00:31;;;;;;;3.17;1.45;;;12.60;99.90;;;;;;5029503;28;25067;-75
2022/09/26 07:02:57;;;;;;;2.45;1.40;;;12.50;99.90;;;;;;5025190;28;25070;-73
2022/09/26 07:05:23;;;;;;;3.67;1.30;;;12.60;99.90;;;;;;5033589;28;25063;-78
2022/09/26 07:07:49;;;;;;;5.75;1.50;;;12.60;99.90;;;;;;5028059;28;25101;-74
2022/09/26 07:10:20;;;;;;;4.38;1.70;;;12.60;99.90;;;;;;5000530;28;25060;-76
2022/09/26 07:12:46;;;;;;;4.80;1.88;;;12.60;99.90;;;;;;5006705;28;25082;-75
2022/09/26 07:15:14;;;;;;;2.90;1.65;;;12.70;99.90;;;;;;4998735;28;25067;-74
2022/09/26 07:17:42;;;;;;;5.88;1.70;;;12.70;99.90;;;;;;5002783;28;25068;-76
2022/09/26 07:20:18;;;;;;;4.18;1.42;;;12.80;99.90;;;;;;4995960;28;25111;-77
2022/09/26 07:22:45;;;;;;;4.18;1.70;;;12.80;99.90;;;;;;4980687;28;25088;-75
2022/09/26 07:25:11;;;;;;;7.30;1.50;;;12.80;99.90;;;;;;4994180;28;25070;-75
2022/09/26 07:27:38;;;;;;;4.93;1.48;;;12.80;99.90;;;;;;4984686;28;25168;-73
2022/09/26 07:30:05;;;;;;;4.25;1.58;;;12.80;99.90;;;;;;4996264;28;25133;-76
2022/09/26 07:32:31;;;;;;;8.40;1.65;;;12.80;99.90;;;;;;5000291;28;25071;-76
2022/09/26 07:35:02;;;;;;;3.10;1.80;;;13.00;99.90;;;;;;4999506;28;25065;-76
2022/09/26 07:37:29;;;;;;;3.67;1.70;;;13.00;99.90;;;;;;5003324;28;25112;-76
2022/09/26 07:39:55;;;;;;;6.15;2.00;;;13.00;99.90;;;;;;5006113;28;25085;-74
2022/09/26 07:42:21;;;;;;;9.40;2.15;;;13.10;99.90;;;;;;4983912;28;25108;-77
2022/09/26 07:44:46;;;;;;;2.22;1.52;;;13.10;99.90;;;;;;5002766;28;25138;-76
2022/09/26 07:50:13;;;;;;;7.80;1.90;;;13.20;99.90;;;;;;5003532;28;25066;-72
2022/09/26 07:52:43;;;;;;;5.57;1.50;;;13.20;99.90;;;;;;5000963;28;25064;-73
2022/09/26 07:55:12;;;;;;;5.25;1.67;;;13.20;99.90;;;;;;4995864;28;25085;-74
2022/09/26 07:57:37;;;;;;;5.22;1.80;;;13.20;99.90;;;;;;4997473;28;25141;-75
2022/09/26 08:00:11;;;;;;;7.18;1.95;;;13.20;99.90;;;;;;4999287;28;25056;-75
2022/09/26 08:02:41;;;;;;;8.45;1.75;;;13.30;99.90;;;;;;4999164;28;25093;-76
2022/09/26 08:05:08;;;;;;;6.43;1.58;;;13.20;99.90;;;;;;4997335;28;25068;-76
2022/09/26 08:07:35;;;;;;;3.03;1.15;;;13.20;99.90;;;;;;5004972;28;25148;-75
2022/09/26 08:10:02;;;;;;;6.88;3.15;;;13.10;99.90;;;;;;5003959;28;25071;-73
2022/09/26 08:12:34;;;;;;;6.50;1.75;;;13.10;99.90;;;;;;5005978;28;25073;-74
2022/09/26 08:15:00;;;;;;;8.32;1.70;;;13.10;99.90;;;;;;4997278;28;25144;-76
2022/09/26 08:17:31;;;;;;;3.90;1.90;;;13.00;99.90;;;;;;5003048;28;25111;-77
2022/09/26 08:19:57;;;;;;;3.90;1.77;;;12.90;99.90;;;;;;4984840;28;25141;-77
2022/09/26 08:22:22;;;;;;;7.63;2.00;;;12.90;99.90;;;;;;5000395;28;25065;-77
2022/09/26 08:24:49;;;;;;;5.28;1.98;;;12.90;99.90;;;;;;5007668;28;25081;-78
2022/09/26 08:27:15;;;;;;;3.50;1.73;;;12.90;99.90;;;;;;5004674;28;25110;-78
2022/09/26 08:29:41;;;;;;;3.22;1.70;;;12.90;99.90;;;;;;5008679;28;25135;-80
2022/09/26 08:32:06;;;;;;;12.25;2.08;;;13.00;99.90;;;;;;5008851;28;25051;-76
2022/09/26 08:34:34;;;;;;;5.63;2.17;;;13.00;99.90;;;;;;5004963;28;25060;-78
2022/09/26 08:36:59;;;;;;;5.28;1.70;;;13.00;99.90;;;;;;5007726;28;25094;-75
2022/09/26 08:39:25;;;;;;;3.42;1.63;;;13.10;99.90;;;;;;4988964;28;25086;-77
2022/09/26 08:42:27;;;;;;;6.03;2.00;;;13.10;99.90;;;;;;5007928;28;25043;-78
2022/09/26 08:44:55;;;;;;;6.43;2.30;;;13.20;99.90;;;;;;5002879;28;25109;-76
2022/09/26 08:47:43;;;;;;;4.38;2.08;;;13.20;99.90;;;;;;5009592;28;25111;-75
2022/09/26 08:50:31;;;;;;;7.53;2.15;;;13.30;99.90;;;;;;4996826;28;25087;-77
2022/09/26 08:53:03;;;;;;;7.38;1.98;;;13.30;99.90;;;;;;5002246;28;25094;-76
2022/09/26 08:55:39;;;;;;;6.23;2.13;;;13.40;99.90;;;;;;4996340;28;25055;-75
2022/09/26 08:58:11;;;;;;;4.35;2.00;;;13.50;99.90;;;;;;4997781;28;25064;-76
2022/09/26 09:00:37;;;;;;;4.20;1.70;;;13.60;99.90;;;;;;5003560;28;25060;-76
2022/09/26 09:03:26;;;;;;;6.80;2.20;;;13.60;99.90;;;;;;5008242;28;25064;-77
2022/09/26 09:06:06;;;;;;;5.22;2.05;;;13.60;99.90;;;;;;5003442;28;25108;-75
2022/09/26 09:08:47;;;;;;;6.88;2.25;;;13.60;99.90;;;;;;4997050;28;25101;-76
2022/09/26 09:11:28;;;;;;;4.97;1.77;;;13.60;99.90;;;;;;5003186;28;25080;-75
2022/09/26 09:14:18;;;;;;;4.95;2.05;;;13.60;99.90;;;;;;5000705;28;25139;-76
2022/09/26 09:17:01;;;;;;;5.97;1.90;;;13.70;99.90;;;;;;5006180;28;25071;-76
2022/09/26 09:19:47;;;;;;;4.85;1.88;;;13.60;99.90;;;;;;5006885;28;25127;-77
2022/09/26 09:22:43;;;;;;;4.13;1.75;;;13.60;99.90;;;;;;4996607;28;25093;-76
2022/09/26 09:25:15;;;;;;;5.07;1.77;;;13.50;99.90;;;;;;5002347;28;25078;-77
2022/09/26 09:28:09;;;;;;;4.75;2.25;;;13.60;99.90;;;;;;4997110;28;25070;-76
2022/09/26 09:30:45;;;;;;;9.25;2.10;;;13.60;99.90;;;;;;5000877;28;25093;-77
2022/09/26 09:33:15;;;;;;;4.60;1.85;;;13.60;99.90;;;;;;5007475;28;25055;-75
2022/09/26 09:35:49;;;;;;;5.63;2.28;;;13.50;99.90;;;;;;5001312;28;25057;-75
2022/09/26 09:38:27;;;;;;;6.80;2.53;;;13.50;99.90;;;;;;5009017;28;25068;-75
2022/09/26 09:41:02;;;;;;;8.10;2.10;;;13.50;99.90;;;;;;4983780;28;25047;-76
2022/09/26 09:43:36;;;;;;;8.05;2.63;;;13.50;99.90;;;;;;4999641;28;25117;-76
2022/09/26 09:46:27;;;;;;;5.47;2.60;;;13.50;99.90;;;;;;4988654;28;25122;-76
2022/09/26 09:49:08;;;;;;;5.03;2.30;;;13.60;99.90;;;;;;5004434;28;25056;-74
2022/09/26 09:51:47;;;;;;;8.77;3.17;;;13.70;99.90;;;;;;5002649;28;25062;-75
2022/09/26 09:54:41;;;;;;;9.93;2.88;;;13.70;99.90;;;;;;4997792;28;25062;-77
2022/09/26 09:57:57;;;;;;;5.80;2.35;;;13.60;99.90;;;;;;5011674;28;25061;-76
2022/09/26 10:00:26;;;;;;;7.32;3.03;;;13.70;99.90;;;;;;5004485;28;25073;-77
2022/09/26 10:03:01;;;;;;;5.00;3.25;;;13.70;99.90;;;;;;5026000;28;25077;-75
2022/09/26 10:05:37;;;;;;;8.25;3.13;;;13.70;99.90;;;;;;5018729;28;25083;-75
2022/09/26 10:08:10;;;;;;;6.25;3.20;;;13.80;99.90;;;;;;5019445;28;25053;-77
2022/09/26 10:10:59;;;;;;;8.85;3.45;;;13.80;99.90;;;;;;5020549;28;25050;-77
2022/09/26 10:13:25;;;;;;;7.80;3.45;;;13.90;99.90;;;;;;5012076;28;25073;-76
2022/09/26 10:15:59;;;;;;;9.05;3.55;;;14.00;99.90;;;;;;5028400;28;25067;-76
2022/09/26 10:18:26;;;;;;;7.00;4.07;;;14.10;99.90;;;;;;5015264;28;25056;-76
2022/09/26 10:20:56;;;;;;;6.72;4.03;;;14.10;99.90;;;;;;5019269;28;25058;-76
2022/09/26 10:23:43;;;;;;;4.78;3.28;;;14.20;99.90;;;;;;5021441;28;25061;-75
2022/09/26 10:26:10;;;;;;;5.22;3.20;;;14.20;99.90;;;;;;5023588;28;25065;-76
2022/09/26 10:28:51;;;;;;;5.10;3.70;;;14.20;99.90;;;;;;5025024;28;25065;-74
2022/09/26 10:31:28;;;;;;;7.00;4.28;;;14.30;99.90;;;;;;5025893;28;25061;-78
2022/09/26 10:33:59;;;;;;;8.50;3.78;;;14.20;99.90;;;;;;5013452;28;25075;-76
2022/09/26 10:36:30;;;;;;;6.50;3.75;;;14.40;99.90;;;;;;5024986;28;25073;-77
2022/09/26 10:42:03;;;;;;;3.65;3.22;;;14.30;99.90;;;;;;5027144;28;25091;-77
2022/09/26 10:44:38;;;;;;;8.82;4.07;;;14.40;99.90;;;;;;5026429;28;25066;-76
2022/09/26 10:47:09;;;;;;;8.43;4.13;;;14.40;99.90;;;;;;5026203;28;25164;-78
2022/09/26 10:49:57;;;;;;;6.38;3.80;;;14.40;99.90;;;;;;5000559;28;25048;-78
2022/09/26 10:52:27;;;;;;;5.85;4.32;;;14.40;99.90;;;;;;5002638;28;25061;-78
2022/09/26 10:55:02;;;;;;;6.85;3.83;;;14.50;99.90;;;;;;5016538;28;25058;-78
2022/09/26 10:57:44;;;;;;;8.77;4.22;;;14.70;99.90;;;;;;5019240;28;25100;-81
2022/09/26 11:00:18;;;;;;;6.35;4.15;;;14.70;99.90;;;;;;5017882;28;25066;-76
2022/09/26 11:02:46;;;;;;;5.20;3.90;;;14.70;99.90;;;;;;5020518;28;25067;-74
2022/09/26 11:08:05;;;;;;;9.02;4.80;;;14.90;99.90;;;;;;5023297;28;25071;-77
2022/09/26 11:10:32;;;;;;;12.45;4.78;;;14.90;99.90;;;;;;5022496;28;25066;-79
2022/09/26 11:13:15;;;;;;;8.98;5.60;;;14.80;99.90;;;;;;5020711;28;25076;-78
2022/09/26 11:15:51;;;;;;;7.18;5.50;;;14.90;99.90;;;;;;5027589;28;25060;-77
2022/09/26 11:18:27;;;;;;;6.18;4.90;;;15.10;99.90;;;;;;5013244;28;25072;-79
2022/09/26 11:21:01;;;;;;;7.15;5.05;;;15.10;99.90;;;;;;5027664;28;25084;-80
2022/09/26 11:23:43;;;;;;;8.63;4.90;;;15.10;99.90;;;;;;5006709;28;25060;-79
2022/09/26 11:26:30;;;;;;;7.37;4.90;;;15.10;99.90;;;;;;5022584;28;25073;-77
2022/09/26 11:29:22;;;;;;;10.02;4.85;;;15.10;99.90;;;;;;5020926;28;25125;-77
2022/09/26 11:31:47;;;;;;;6.03;5.07;;;15.00;99.90;;;;;;5032085;28;25085;-77
2022/09/26 11:34:16;;;;;;;11.32;5.03;;;15.10;99.90;;;;;;5006011;28;25064;-78
2022/09/26 11:37:03;;;;;;;8.70;5.30;;;15.10;99.90;;;;;;5032045;28;25064;-79
2022/09/26 11:39:49;;;;;;;10.75;5.22;;;15.10;99.90;;;;;;5013061;28;25053;-80
2022/09/26 11:42:32;;;;;;;6.28;4.68;;;15.10;99.90;;;;;;5025648;28;25057;-81
2022/09/26 11:45:03;;;;;;;7.75;4.93;;;15.00;99.90;;;;;;5019949;28;25050;-79
2022/09/26 11:47:38;;;;;;;7.13;4.53;;;15.10;99.90;;;;;;5024618;28;25068;-77
2022/09/26 11:50:41;;;;;;;7.78;5.15;;;15.10;99.90;;;;;;5007310;28;24943;-78
2022/09/26 11:53:41;;;;;;;6.82;5.22;;;15.20;99.90;;;;;;5017426;28;25075;-75
2022/09/26 11:56:39;;;;;;;7.20;5.18;;;15.10;99.90;;;;;;5002522;28;25065;-78
2022/09/26 11:59:24;;;;;;;8.02;4.95;;;15.30;99.90;;;;;;5011074;28;25068;-80
2022/09/26 12:01:54;;;;;;;6.05;4.82;;;15.30;99.90;;;;;;5012312;28;25078;-78
2022/09/26 12:04:43;;;;;;;5.80;4.72;;;15.30;99.90;;;;;;5006384;28;25088;-81
2022/09/26 12:07:31;;;;;;;7.05;4.78;;;15.30;99.90;;;;;;5007252;28;25075;-79
2022/09/26 12:10:35;;;;;;;8.18;5.20;;;15.30;99.90;;;;;;5006219;28;25059;-80
2022/09/26 12:13:23;;;;;;;6.50;4.90;;;15.30;99.90;;;;;;4945351;29;25153;-80
2022/09/26 12:16:13;;;;;;;5.97;5.05;;;15.30;99.90;;;;;;4941971;29;25097;-78
2022/09/26 12:19:04;;;;;;;6.57;4.40;;;15.30;99.90;;;;;;4996039;28;25072;-79
2022/09/26 12:22:27;;;;;;;6.85;4.60;;;15.30;99.90;;;;;;5004389;28;25134;-77
2022/09/26 12:25:06;;;;;;;9.77;5.22;;;15.30;99.90;;;;;;5008432;28;25083;-77
2022/09/26 12:27:48;;;;;;;4.55;4.15;;;15.40;99.90;;;;;;5008353;28;25055;-80
2022/09/26 12:30:52;;;;;;;7.38;4.50;;;15.40;99.90;;;;;;5008228;28;25064;-79
2022/09/26 12:33:33;;;;;;;7.82;5.03;;;15.50;99.90;;;;;;5003373;28;25133;-78
2022/09/26 12:36:17;;;;;;;7.85;5.07;;;15.50;99.90;;;;;;5002143;28;25053;-78
2022/09/26 12:39:02;;;;;;;6.07;5.10;;;15.50;99.90;;;;;;5009213;28;25147;-74
2022/09/26 12:41:37;;;;;;;7.03;5.75;;;15.40;99.90;;;;;;5014206;28;25063;-80
2022/09/26 12:44:30;;;;;;;8.32;5.80;;;15.60;99.90;;;;;;5003483;28;25120;-80
2022/09/26 12:47:32;;;;;;;6.63;5.22;;;15.60;99.90;;;;;;5000183;28;25069;-80
2022/09/26 12:50:21;;;;;;;7.60;5.63;;;15.70;99.90;;;;;;4985829;28;25071;-79
2022/09/26 12:53:05;;;;;;;6.95;5.50;;;15.60;99.90;;;;;;5001085;28;25079;-80
2022/09/26 12:55:49;;;;;;;7.22;5.82;;;15.70;99.90;;;;;;5003264;28;25149;-79
2022/09/26 12:59:12;;;;;;;5.78;4.80;;;15.70;99.90;;;;;;4986564;28;25142;-78
2022/09/26 13:01:48;;;;;;;6.38;4.50;;;15.80;99.90;;;;;;4951086;28;25064;-80
2022/09/26 13:04:25;;;;;;;5.72;3.38;;;15.80;99.90;;;;;;4954373;28;25118;-81
2022/09/26 13:07:24;;;;;;;4.30;3.65;;;15.70;99.90;;;;;;4989006;28;25080;-80
2022/09/26 13:10:18;;;;;;;4.95;3.60;;;15.90;99.90;;;;;;5013272;28;25057;-81
2022/09/26 13:13:12;;;;;;;4.68;4.00;;;15.90;99.90;;;;;;5014738;28;25067;-80
2022/09/26 13:15:56;;;;;;;5.18;4.40;;;16.20;99.90;;;;;;5030383;28;25072;-80
2022/09/26 13:18:28;;;;;;;4.65;4.07;;;16.30;99.90;;;;;;5021235;28;25071;-77
2022/09/26 13:21:01;;;;;;;9.20;4.30;;;16.40;99.90;;;;;;5002850;28;25097;-79
2022/09/26 13:23:36;;;;;;;5.57;4.78;;;16.30;99.90;;;;;;4984038;28;25111;-79
2022/09/26 13:26:24;;;;;;;8.80;5.38;;;16.50;99.90;;;;;;4992110;28;25078;-79
2022/09/26 13:28:55;;;;;;;7.90;5.18;;;16.70;99.90;;;;;;5002237;28;25170;-77
2022/09/26 13:31:32;;;;;;;6.60;5.03;;;16.80;99.90;;;;;;5005250;28;25129;-78
2022/09/26 13:34:15;;;;;;;5.43;4.43;;;16.80;99.90;;;;;;5006200;28;25138;-77
2022/09/26 13:36:43;;;;;;;4.95;3.95;;;16.80;99.90;;;;;;5002960;28;25144;-77